Time;durP1;ratioP1;P1;durP2;ratioP2;P2;SDS_P1;SDS_P2;PMS_P1;PMS_P2;Temp;Humidity;BMP_temperature;BMP_pressure;BME280_temperature;BME280_humidity;BME280_pressure;Samples;Min_cycle;Max_cycle;Signal;HPM_P1;HPM_P2
2023/01/06 00:00:39;;;;;;;25.92;14.85;;;;;;;17.58;57.78;101813.72;6147355;23;20029;-37
2023/01/06 00:03:08;;;;;;;30.42;15.55;;;;;;;17.59;58.11;101810.88;6147456;23;20033;-36
2023/01/06 00:05:35;;;;;;;29.98;15.10;;;;;;;17.60;57.82;101817.09;6148080;23;20021;-36
2023/01/06 00:08:01;;;;;;;25.77;14.20;;;;;;;17.60;57.82;101809.91;6144530;23;20025;-36
2023/01/06 00:10:28;;;;;;;24.02;13.70;;;;;;;17.62;57.87;101813.31;6146818;23;20033;-35
2023/01/06 00:12:55;;;;;;;22.70;12.45;;;;;;;17.62;57.87;101796.41;6146289;23;20033;-36
2023/01/06 00:15:21;;;;;;;27.23;14.63;;;;;;;17.62;57.75;101799.06;6065811;23;20032;-36
2023/01/06 00:17:48;;;;;;;25.75;14.27;;;;;;;17.61;57.68;101794.66;6146125;23;20338;-35
2023/01/06 00:20:14;;;;;;;24.08;13.40;;;;;;;17.62;57.84;101791.88;6146630;23;20049;-36
2023/01/06 00:22:41;;;;;;;24.45;13.60;;;;;;;17.62;58.04;101789.19;6146784;23;20036;-36
2023/01/06 00:25:11;;;;;;;23.48;12.30;;;;;;;17.63;57.52;101787.38;6145807;23;20029;-36
2023/01/06 00:27:38;;;;;;;23.30;11.55;;;;;;;17.62;57.62;101786.50;6145955;23;20029;-36
2023/01/06 00:30:07;;;;;;;21.02;11.90;;;;;;;17.62;57.76;101791.88;6146446;23;20192;-37
2023/01/06 00:32:34;;;;;;;19.73;11.32;;;;;;;17.62;57.41;101791.88;6145960;23;20025;-36
2023/01/06 00:35:01;;;;;;;19.80;11.20;;;;;;;17.62;57.87;101789.19;6085131;23;20033;-36
2023/01/06 00:37:28;;;;;;;22.33;12.45;;;;;;;17.62;57.64;101786.50;6125798;23;20433;-36
2023/01/06 00:39:54;;;;;;;18.35;10.95;;;;;;;17.63;57.67;101790.03;6141688;23;20117;-37
2023/01/06 00:42:21;;;;;;;21.10;11.70;;;;;;;17.62;57.85;101793.72;6144779;23;20032;-36
2023/01/06 00:44:48;;;;;;;21.80;10.57;;;;;;;17.60;57.61;101796.50;6143758;23;20060;-36
2023/01/06 00:47:15;;;;;;;18.25;10.82;;;;;;;17.60;57.57;101793.81;6144105;23;20068;-36
2023/01/06 00:49:42;;;;;;;17.73;9.75;;;;;;;17.61;57.42;101781.25;6143192;23;20049;-37
2023/01/06 00:52:09;;;;;;;18.20;10.57;;;;;;;17.60;57.36;101780.41;6147303;23;20028;-37
2023/01/06 00:54:38;;;;;;;17.38;10.27;;;;;;;17.60;57.65;101792.97;6076195;23;20343;-37
2023/01/06 00:57:06;;;;;;;18.02;9.82;;;;;;;17.60;57.60;101784.94;6134680;23;20263;-36
2023/01/06 00:59:33;;;;;;;13.10;8.25;;;;;;;17.59;57.36;101784.09;6146329;23;20029;-36
2023/01/06 01:02:00;;;;;;;17.83;10.27;;;;;;;17.60;57.78;101788.47;6146922;23;20120;-36
2023/01/06 01:04:28;;;;;;;20.52;10.73;;;;;;;17.62;57.51;101791.03;6145994;23;20065;-35
2023/01/06 01:06:54;;;;;;;16.17;9.15;;;;;;;17.60;57.63;101788.47;6146238;23;20420;-36
2023/01/06 01:09:24;;;;;;;13.93;8.50;;;;;;;17.61;57.68;101786.63;6145964;23;20111;-37
2023/01/06 01:12:10;;;;;;;17.48;9.60;;;;;;;17.60;57.53;101775.06;6146890;23;20026;-36
2023/01/06 01:14:48;;;;;;;14.35;8.60;;;;;;;17.58;57.71;101778.88;6145039;23;20026;-35
2023/01/06 01:17:18;;;;;;;15.18;8.60;;;;;;;17.59;57.75;101778.72;6144184;23;20057;-36
2023/01/06 01:19:46;;;;;;;13.65;7.82;;;;;;;17.60;57.55;101771.53;6141719;23;20032;-36
2023/01/06 01:22:13;;;;;;;15.65;8.90;;;;;;;17.59;57.55;101767.16;6143566;23;20029;-37
2023/01/06 01:24:39;;;;;;;16.08;9.10;;;;;;;17.59;57.67;101762.63;6143231;23;20025;-36
2023/01/06 01:27:06;;;;;;;16.67;8.63;;;;;;;17.59;57.93;101762.63;6144321;23;20028;-36
2023/01/06 01:29:32;;;;;;;14.52;8.15;;;;;;;17.61;57.67;101770.53;6145058;23;20104;-36
2023/01/06 01:31:59;;;;;;;13.07;7.60;;;;;;;17.62;57.86;101759.72;6145399;23;20068;-37
2023/01/06 01:34:26;;;;;;;14.00;8.35;;;;;;;17.63;57.85;101761.41;6144625;23;20061;-35
2023/01/06 01:36:54;;;;;;;12.65;7.55;;;;;;;17.64;57.68;101755.06;6065814;23;20097;-35
2023/01/06 01:39:27;;;;;;;12.30;7.10;;;;;;;17.63;57.70;101753.34;6142900;23;20025;-35
2023/01/06 01:41:55;;;;;;;13.23;7.80;;;;;;;17.66;57.72;101753.09;6142735;23;20439;-35
2023/01/06 01:45:00;;;;;;;17.33;8.10;;;;;;;17.65;57.38;101750.56;6144584;23;20052;-35
2023/01/06 01:47:36;;;;;;;11.57;6.72;;;;;;;17.67;57.69;101743.22;6145531;23;20101;-35
2023/01/06 01:50:13;;;;;;;12.40;7.15;;;;;;;17.67;57.94;101743.22;6145313;23;20056;-35
2023/01/06 01:52:44;;;;;;;10.88;6.68;;;;;;;17.68;57.28;101745.78;6144829;23;20288;-35
2023/01/06 01:55:12;;;;;;;10.63;6.57;;;;;;;17.69;57.49;101744.81;6085837;23;20048;-35
2023/01/06 01:57:47;;;;;;;11.55;6.65;;;;;;;17.69;57.77;101739.44;6125266;23;20022;-36
2023/01/06 02:00:16;;;;;;;7.75;4.40;;;;;;;17.69;57.38;101731.41;6144892;23;20323;-35
2023/01/06 02:02:43;;;;;;;9.32;5.15;;;;;;;17.68;57.29;101723.47;6144412;23;20464;-35
2023/01/06 02:05:12;;;;;;;10.60;6.53;;;;;;;17.68;57.14;101723.47;6145513;23;20030;-35
2023/01/06 02:07:39;;;;;;;12.38;6.03;;;;;;;17.66;56.98;101710.22;6146362;23;20025;-36
2023/01/06 02:10:06;;;;;;;9.35;5.40;;;;;;;17.67;57.50;101709.22;6145126;23;20104;-35
2023/01/06 02:12:33;;;;;;;8.80;5.00;;;;;;;17.67;57.45;101719.09;6146387;23;20029;-35
2023/01/06 02:14:59;;;;;;;14.05;5.95;;;;;;;17.66;57.28;101712.91;6075557;23;20117;-36
2023/01/06 02:18:03;;;;;;;9.02;5.20;;;;;;;17.64;57.24;101716.69;6119455;23;20025;-34
2023/01/06 02:20:44;;;;;;;8.70;4.85;;;;;;;17.64;57.35;101714.84;6117678;23;20026;-35
2023/01/06 02:23:32;;;;;;;8.05;4.50;;;;;;;17.65;57.17;101710.34;6118013;23;20030;-35
2023/01/06 02:26:08;;;;;;;7.63;3.78;;;;;;;17.64;56.90;101689.88;6118079;23;20025;-35
2023/01/06 02:28:53;;;;;;;6.80;4.07;;;;;;;17.65;56.90;101683.53;6118212;23;20029;-35
2023/01/06 02:31:22;;;;;;;6.68;4.35;;;;;;;17.64;56.79;101689.88;6119282;23;20032;-35
2023/01/06 02:33:49;;;;;;;7.20;4.22;;;;;;;17.63;57.34;101693.53;6115644;23;20034;-36
2023/01/06 02:36:15;;;;;;;8.70;3.95;;;;;;;17.62;57.08;101684.66;6061543;23;20045;-38
2023/01/06 02:39:03;;;;;;;6.32;3.25;;;;;;;17.59;56.97;101676.00;6117084;23;20052;-36
2023/01/06 02:41:53;;;;;;;8.50;3.67;;;;;;;17.57;57.21;101684.19;6116631;23;20616;-36
2023/01/06 02:44:29;;;;;;;6.30;3.40;;;;;;;17.59;57.05;101678.69;6116100;23;20033;-35
2023/01/06 02:47:26;;;;;;;7.53;3.70;;;;;;;17.58;56.94;101668.97;6116095;23;20531;-36
2023/01/06 02:50:06;;;;;;;6.90;3.38;;;;;;;17.57;56.57;101668.13;6116370;23;20038;-35
2023/01/06 02:53:12;;;;;;;7.47;3.13;;;;;;;17.55;56.57;101664.69;6115382;23;20104;-35
2023/01/06 02:55:51;;;;;;;7.40;3.72;;;;;;;17.58;56.42;101655.56;6063048;23;20061;-35
2023/01/06 02:58:41;;;;;;;6.57;3.42;;;;;;;17.57;56.81;101660.06;6117193;23;20049;-35
2023/01/06 03:01:23;;;;;;;8.02;3.22;;;;;;;17.55;56.38;101651.28;6114828;23;20474;-35
2023/01/06 03:03:52;;;;;;;6.72;3.25;;;;;;;17.55;56.77;101637.88;6114109;23;20287;-35
2023/01/06 03:06:25;;;;;;;6.60;3.03;;;;;;;17.55;56.53;101632.53;6115501;23;20032;-35
2023/01/06 03:08:54;;;;;;;6.70;3.00;;;;;;;17.56;56.84;101628.88;6114222;23;20060;-36
2023/01/06 03:11:21;;;;;;;5.15;2.72;;;;;;;17.56;56.63;101618.13;6116998;23;20455;-35
2023/01/06 03:13:54;;;;;;;6.53;2.90;;;;;;;17.55;56.98;101613.75;6116746;23;20627;-36
2023/01/06 03:16:20;;;;;;;4.47;2.65;;;;;;;17.56;56.59;101617.28;6120686;23;20025;-35
2023/01/06 03:18:50;;;;;;;5.28;3.35;;;;;;;17.55;56.55;101621.81;6143405;23;20825;-36
2023/01/06 03:21:20;;;;;;;5.82;3.08;;;;;;;17.55;56.71;101616.44;6144656;23;20654;-36
2023/01/06 03:23:46;;;;;;;5.45;2.60;;;;;;;17.54;56.91;101612.06;6144861;23;20031;-37
2023/01/06 03:26:14;;;;;;;4.38;2.30;;;;;;;17.54;56.73;101606.72;6144718;23;20022;-36
2023/01/06 03:28:40;;;;;;;5.85;2.70;;;;;;;17.54;56.45;101606.72;6144764;23;20032;-35
2023/01/06 03:31:15;;;;;;;7.07;2.95;;;;;;;17.54;56.60;101605.88;6145662;23;20026;-35
2023/01/06 03:33:59;;;;;;;3.90;2.28;;;;;;;17.54;56.96;101600.50;6144098;23;20087;-35
2023/01/06 03:36:51;;;;;;;4.75;2.45;;;;;;;17.55;56.38;101594.16;6071119;23;20108;-35
2023/01/06 03:39:25;;;;;;;6.05;2.28;;;;;;;17.54;56.46;101582.59;6142798;23;20112;-36
2023/01/06 03:45:37;;;;;;;4.10;2.30;;;;;;;17.55;56.38;101570.03;6145627;23;20293;-36
2023/01/06 03:48:16;;;;;;;3.28;2.10;;;;;;;17.54;56.40;101566.50;6143175;23;20029;-35
2023/01/06 03:51:06;;;;;;;5.30;2.63;;;;;;;17.52;56.48;101563.09;6145276;23;20212;-36
2023/01/06 03:53:49;;;;;;;5.13;2.13;;;;;;;17.52;56.59;101558.59;6144809;23;20052;-36
2023/01/06 03:56:20;;;;;;;5.03;2.05;;;;;;;17.55;56.28;101564.69;6073858;23;20026;-35
2023/01/06 03:58:52;;;;;;;3.22;2.13;;;;;;;17.54;56.40;101563.00;6135847;23;20025;-36
2023/01/06 04:01:19;;;;;;;4.40;2.47;;;;;;;17.55;56.50;101564.69;6144188;23;20065;-35
2023/01/06 04:03:47;;;;;;;4.43;2.30;;;;;;;17.54;56.89;101569.19;6144639;23;20029;-35
2023/01/06 04:06:14;;;;;;;5.45;2.10;;;;;;;17.55;56.10;101551.28;6144593;23;20025;-35
2023/01/06 04:08:40;;;;;;;4.97;1.80;;;;;;;17.55;56.66;101562.00;6144020;23;20491;-36
2023/01/06 04:11:07;;;;;;;4.03;2.00;;;;;;;17.54;56.42;101547.75;6144737;23;20026;-35
2023/01/06 04:13:33;;;;;;;4.93;2.35;;;;;;;17.55;56.60;101562.84;6148181;23;20025;-37
2023/01/06 04:16:00;;;;;;;3.17;2.03;;;;;;;17.55;56.40;101551.28;6065184;23;20037;-36
2023/01/06 04:18:26;;;;;;;4.57;2.13;;;;;;;17.56;56.33;101542.25;6143657;23;20447;-35
2023/01/06 04:20:53;;;;;;;3.30;1.70;;;;;;;17.56;56.46;101544.91;6145039;23;20030;-35
2023/01/06 04:23:19;;;;;;;3.42;2.00;;;;;;;17.55;56.33;101549.44;6146328;23;20025;-35
2023/01/06 04:25:46;;;;;;;6.80;2.35;;;;;;;17.54;56.29;101542.38;6146554;23;20156;-40
2023/01/06 04:28:12;;;;;;;3.15;1.77;;;;;;;17.55;56.35;101551.28;6145518;23;20026;-35
2023/01/06 04:30:39;;;;;;;3.83;1.77;;;;;;;17.56;56.34;101548.44;6145915;23;20029;-35
2023/01/06 04:33:05;;;;;;;2.53;1.88;;;;;;;17.54;56.16;101528.13;6146557;23;20030;-36
2023/01/06 04:35:32;;;;;;;3.67;2.00;;;;;;;17.55;55.85;101532.50;6144907;23;20035;-37
2023/01/06 04:38:01;;;;;;;6.53;1.90;;;;;;;17.55;56.10;101537.88;6143765;23;20021;-35
2023/01/06 04:40:27;;;;;;;3.80;1.67;;;;;;;17.54;56.01;101523.63;6143618;23;20025;-35
2023/01/06 04:43:03;;;;;;;4.97;1.52;;;;;;;17.53;55.88;101521.94;6144709;23;20457;-38
2023/01/06 04:45:30;;;;;;;2.45;1.30;;;;;;;17.51;56.02;101515.84;6144283;23;20025;-36
2023/01/06 04:47:56;;;;;;;7.30;1.98;;;;;;;17.51;55.97;101513.16;6143417;23;20048;-35
2023/01/06 04:50:23;;;;;;;2.83;1.38;;;;;;;17.52;56.14;101518.38;6144928;23;20030;-36
2023/01/06 04:52:49;;;;;;;2.65;1.38;;;;;;;17.50;55.73;101501.59;6144983;23;20047;-35
2023/01/06 04:55:16;;;;;;;2.72;1.42;;;;;;;17.50;56.02;101496.25;6143415;23;20025;-36
2023/01/06 04:57:43;;;;;;;2.10;1.30;;;;;;;17.51;55.79;101497.09;6145097;23;20026;-37
2023/01/06 05:00:10;;;;;;;3.03;1.67;;;;;;;17.51;55.94;101497.09;6144416;23;20025;-35
2023/01/06 05:02:36;;;;;;;4.38;1.45;;;;;;;17.51;56.08;101499.75;6144694;23;20025;-37
2023/01/06 05:05:03;;;;;;;2.80;1.25;;;;;;;17.52;55.94;101504.13;6143839;23;20318;-35
2023/01/06 05:07:30;;;;;;;3.28;1.20;;;;;;;17.52;56.15;101496.94;6145795;23;20322;-36
2023/01/06 05:09:56;;;;;;;4.18;1.60;;;;;;;17.52;56.17;101496.09;6141469;23;20417;-36
2023/01/06 05:12:23;;;;;;;1.83;1.15;;;;;;;17.51;56.29;101492.56;6144540;23;20040;-36
2023/01/06 05:14:49;;;;;;;2.65;1.20;;;;;;;17.51;55.91;101483.69;6145464;23;20698;-36
2023/01/06 05:17:16;;;;;;;2.30;1.23;;;;;;;17.51;55.76;101481.84;6143532;23;20028;-36
2023/01/06 05:19:43;;;;;;;1.98;1.20;;;;;;;17.51;56.02;101481.84;6142376;23;20242;-35
2023/01/06 05:22:10;;;;;;;1.65;1.13;;;;;;;17.52;56.03;101488.06;6142955;23;20029;-37
2023/01/06 05:24:37;;;;;;;1.27;0.70;;;;;;;17.52;55.86;101475.50;6145302;23;20342;-35
2023/01/06 05:27:04;;;;;;;2.80;1.25;;;;;;;17.53;55.87;101495.13;6146859;23;20033;-36
2023/01/06 05:29:30;;;;;;;2.05;1.20;;;;;;;17.54;56.09;101479.91;6144346;23;20448;-36
2023/01/06 05:31:57;;;;;;;6.47;1.10;;;;;;;17.55;56.00;101487.78;6145744;23;20497;-36
2023/01/06 05:34:24;;;;;;;2.50;1.20;;;;;;;17.56;56.29;101489.47;6144678;23;20060;-35
2023/01/06 05:36:51;;;;;;;2.67;1.30;;;;;;;17.56;56.02;101484.13;6073367;23;20101;-35
2023/01/06 05:39:17;;;;;;;3.78;1.35;;;;;;;17.55;55.77;101493.16;6138625;23;20029;-35
2023/01/06 05:41:44;;;;;;;3.13;1.00;;;;;;;17.56;55.83;101491.31;6143922;23;20025;-35
2023/01/06 05:44:10;;;;;;;5.32;1.17;;;;;;;17.55;55.92;101492.31;6146778;23;20112;-37
2023/01/06 05:46:37;;;;;;;3.70;1.10;;;;;;;17.54;55.78;101498.66;6147677;23;20025;-36
2023/01/06 05:49:04;;;;;;;1.77;1.10;;;;;;;17.54;56.08;101491.47;6146264;23;20112;-35
2023/01/06 05:51:30;;;;;;;3.95;1.40;;;;;;;17.54;56.04;101491.47;6146174;23;20025;-36
2023/01/06 05:53:57;;;;;;;2.75;1.20;;;;;;;17.54;55.97;101496.81;6144665;23;20425;-35
2023/01/06 05:56:23;;;;;;;2.72;1.08;;;;;;;17.52;56.17;101490.72;6073017;23;20033;-37
2023/01/06 05:58:52;;;;;;;2.28;1.30;;;;;;;17.51;56.14;101481.84;6138493;23;20374;-36
2023/01/06 06:01:27;;;;;;;2.50;1.17;;;;;;;17.50;56.19;101495.41;6144954;23;20025;-36
2023/01/06 06:03:54;;;;;;;2.83;1.25;;;;;;;17.50;56.19;101480.16;6144791;23;20029;-36
2023/01/06 06:06:22;;;;;;;2.72;1.10;;;;;;;17.49;56.47;101472.25;6146395;23;20424;-35
2023/01/06 06:08:49;;;;;;;2.00;0.90;;;;;;;17.48;56.37;101484.78;6145263;23;20036;-35
2023/01/06 06:11:18;;;;;;;2.22;1.10;;;;;;;17.49;56.16;101493.72;6146732;23;20051;-35
2023/01/06 06:13:49;;;;;;;2.63;1.20;;;;;;;17.48;56.58;101495.50;6148969;23;20068;-36
2023/01/06 06:16:18;;;;;;;2.15;0.98;;;;;;;17.49;56.48;101496.38;6065051;23;20418;-36
2023/01/06 06:18:52;;;;;;;4.57;1.10;;;;;;;17.46;56.51;101489.44;6146182;23;20663;-35
2023/01/06 06:21:22;;;;;;;3.40;0.90;;;;;;;17.45;56.39;101490.44;6148022;23;20026;-35
2023/01/06 06:23:48;;;;;;;2.65;0.95;;;;;;;17.46;56.91;101489.44;6147764;23;20036;-35
2023/01/06 06:26:15;;;;;;;1.90;0.95;;;;;;;17.47;56.18;101495.66;6146154;23;20298;-35
2023/01/06 06:28:42;;;;;;;5.47;1.48;;;;;;;17.47;56.62;101506.38;6145284;23;20113;-35
2023/01/06 06:31:13;;;;;;;1.45;0.98;;;;;;;17.47;56.24;101504.53;6147169;23;20029;-35
2023/01/06 06:33:39;;;;;;;1.63;0.98;;;;;;;17.47;56.72;101490.28;6148095;23;20080;-35
2023/01/06 06:36:14;;;;;;;2.13;1.10;;;;;;;17.46;56.79;101494.81;6069544;23;20101;-35
2023/01/06 06:38:42;;;;;;;1.75;0.80;;;;;;;17.45;56.64;101514.56;6144700;23;20025;-35
2023/01/06 06:41:08;;;;;;;1.30;1.08;;;;;;;17.47;56.85;101517.09;6144436;23;20048;-34
2023/01/06 06:43:35;;;;;;;1.13;0.70;;;;;;;17.45;56.48;101522.59;6146449;23;20441;-35
2023/01/06 06:46:02;;;;;;;1.92;0.90;;;;;;;17.47;56.82;101528.66;6145253;23;20037;-36
2023/01/06 06:48:29;;;;;;;1.40;1.00;;;;;;;17.48;56.78;101542.91;6145609;23;20032;-35
2023/01/06 06:51:25;;;;;;;2.00;1.02;;;;;;;17.46;57.15;101536.84;6145361;23;20033;-36
2023/01/06 06:53:51;;;;;;;1.65;1.10;;;;;;;17.51;56.86;101550.69;6119641;23;20033;-35
2023/01/06 06:56:19;;;;;;;1.65;0.80;;;;;;;17.52;56.81;101576.50;6084166;23;20037;-36
2023/01/06 06:58:47;;;;;;;1.17;0.90;;;;;;;17.53;57.19;101559.47;6128710;23;20017;-36
2023/01/06 07:01:16;;;;;;;1.45;1.00;;;;;;;17.54;57.22;101561.16;6145461;23;20104;-36
2023/01/06 07:03:43;;;;;;;2.53;1.13;;;;;;;17.55;57.41;101562.84;6145286;23;20114;-35
2023/01/06 07:06:13;;;;;;;2.60;1.05;;;;;;;17.57;57.41;101570.72;6145437;23;20025;-36
2023/01/06 07:08:43;;;;;;;2.00;0.90;;;;;;;17.56;57.50;101569.88;6143518;23;20032;-35
2023/01/06 07:11:10;;;;;;;2.00;1.10;;;;;;;17.57;57.12;101574.28;6143307;23;20025;-36
2023/01/06 07:13:37;;;;;;;1.80;0.90;;;;;;;17.58;57.20;101573.31;6145057;23;20282;-35
2023/01/06 07:16:04;;;;;;;1.30;1.00;;;;;;;17.59;57.26;101582.19;6084467;23;20033;-35
2023/01/06 07:18:31;;;;;;;2.50;1.00;;;;;;;17.59;57.81;101583.03;6125916;23;20021;-35
2023/01/06 07:20:57;;;;;;;2.08;0.90;;;;;;;17.58;57.75;101589.38;6143062;23;20029;-36
2023/01/06 07:23:24;;;;;;;1.58;1.13;;;;;;;17.60;57.66;101594.59;6143522;23;20056;-36
2023/01/06 07:25:55;;;;;;;0.98;0.80;;;;;;;17.60;57.54;101590.09;6145460;23;20029;-35
2023/01/06 07:28:23;;;;;;;2.80;1.33;;;;;;;17.61;57.81;101605.22;6143904;23;20108;-35
2023/01/06 07:30:50;;;;;;;1.95;1.10;;;;;;;17.61;57.89;101602.53;6144732;23;20025;-35
2023/01/06 07:33:18;;;;;;;2.88;1.10;;;;;;;17.62;58.02;101612.28;6144923;23;20037;-35
2023/01/06 07:35:44;;;;;;;1.25;1.02;;;;;;;17.63;58.10;101613.97;6089746;23;20344;-36
2023/01/06 07:38:11;;;;;;;1.20;1.05;;;;;;;17.65;58.21;101617.38;6120194;23;20358;-35
2023/01/06 07:40:38;;;;;;;1.50;0.90;;;;;;;17.66;58.13;101619.06;6142836;23;20112;-36
2023/01/06 07:43:06;;;;;;;0.98;0.80;;;;;;;17.68;57.82;101622.44;6144766;23;20290;-36
2023/01/06 07:45:33;;;;;;;1.05;0.82;;;;;;;17.69;57.95;101624.16;6145411;23;20096;-35
2023/01/06 07:48:01;;;;;;;1.27;0.80;;;;;;;17.69;57.70;101621.50;6144030;23;20028;-37
2023/01/06 07:50:28;;;;;;;1.83;0.93;;;;;;;17.71;57.94;101632.06;6144553;23;20025;-36
2023/01/06 07:53:00;;;;;;;1.08;0.90;;;;;;;17.72;58.10;101639.13;6144921;23;20029;-36
2023/01/06 07:55:27;;;;;;;1.55;1.00;;;;;;;17.73;58.34;101644.38;6104209;23;20029;-36
2023/01/06 07:57:53;;;;;;;1.85;1.10;;;;;;;17.76;58.13;101654.00;6083158;23;20053;-36
2023/01/06 08:00:20;;;;;;;1.38;0.90;;;;;;;17.77;58.01;101653.03;6142797;23;20121;-35
2023/01/06 08:02:47;;;;;;;1.08;0.93;;;;;;;17.78;57.89;101649.38;6144032;23;20029;-35
2023/01/06 08:05:14;;;;;;;1.88;1.10;;;;;;;17.80;58.03;101646.53;6142854;23;20036;-35
2023/01/06 08:07:40;;;;;;;1.23;0.80;;;;;;;17.82;58.18;101666.03;6142343;23;20116;-36
2023/01/06 08:10:07;;;;;;;2.17;1.10;;;;;;;17.82;58.14;101661.53;6139127;23;20032;-35
2023/01/06 08:12:34;;;;;;;8.15;1.48;;;;;;;17.84;58.16;101670.28;6143711;23;20053;-36
2023/01/06 08:15:02;;;;;;;2.65;0.88;;;;;;;17.85;58.44;101666.63;6143235;23;20029;-36
2023/01/06 08:17:29;;;;;;;1.60;0.95;;;;;;;17.86;58.39;101680.88;6143955;23;20026;-36
2023/01/06 08:19:56;;;;;;;1.50;1.00;;;;;;;17.85;58.38;101680.03;6140144;23;20029;-36
2023/01/06 08:22:23;;;;;;;2.67;0.80;;;;;;;17.86;58.14;101680.88;6143069;23;20112;-36
2023/01/06 08:24:49;;;;;;;1.42;0.85;;;;;;;17.85;58.21;101688.09;6141853;23;20040;-36
2023/01/06 08:27:17;;;;;;;3.65;1.70;;;;;;;17.86;58.23;101686.25;6144578;23;20114;-36
2023/01/06 08:29:43;;;;;;;4.57;2.55;;;;;;;17.85;58.45;101703.28;6146160;23;20516;-36
2023/01/06 08:32:10;;;;;;;11.07;4.75;;;;;;;17.84;58.50;101701.59;6147142;23;20029;-35
2023/01/06 08:34:36;;;;;;;14.38;7.35;;;;;;;17.82;58.35;101712.47;6123734;23;20037;-36
2023/01/06 08:37:03;;;;;;;15.52;8.82;;;;;;;17.84;58.40;101718.53;6099591;23;20029;-35
2023/01/06 08:39:30;;;;;;;17.73;9.02;;;;;;;17.83;58.69;101716.84;6144482;23;20060;-36
2023/01/06 08:41:57;;;;;;;19.50;10.18;;;;;;;17.84;58.78;101723.91;6144556;23;20029;-36
2023/01/06 08:44:23;;;;;;;21.98;10.95;;;;;;;17.85;58.37;101730.13;6144107;23;20230;-35
2023/01/06 08:46:50;;;;;;;22.23;11.65;;;;;;;17.85;58.84;101740.84;6146106;23;20113;-36
2023/01/06 08:49:16;;;;;;;20.67;11.55;;;;;;;17.87;58.65;101741.56;6144054;23;20037;-35
2023/01/06 08:51:43;;;;;;;22.88;12.15;;;;;;;17.90;58.88;101749.38;6144164;23;20026;-36
2023/01/06 08:54:09;;;;;;;22.90;11.38;;;;;;;17.91;58.54;101741.19;6143694;23;20083;-35
2023/01/06 08:56:38;;;;;;;25.02;12.45;;;;;;;17.94;58.69;101740.94;6066253;23;20033;-36
2023/01/06 08:59:05;;;;;;;21.40;11.75;;;;;;;17.96;58.75;101754.19;6141929;23;20032;-36
2023/01/06 09:01:34;;;;;;;21.65;12.45;;;;;;;17.97;58.50;101747.88;6145473;23;20025;-37
2023/01/06 09:04:04;;;;;;;22.42;12.13;;;;;;;17.97;58.71;101751.41;6146869;23;20025;-36
2023/01/06 09:06:31;;;;;;;23.13;11.73;;;;;;;17.99;58.65;101745.88;6147605;23;20026;-35
2023/01/06 09:08:58;;;;;;;21.30;12.30;;;;;;;18.02;58.51;101750.16;6146318;23;20032;-36
2023/01/06 09:11:26;;;;;;;20.55;11.27;;;;;;;18.02;58.40;101744.78;6147458;23;20509;-35
2023/01/06 09:13:52;;;;;;;22.17;12.52;;;;;;;18.05;58.52;101749.88;6146667;23;20065;-36
2023/01/06 09:16:20;;;;;;;20.55;10.95;;;;;;;18.04;57.66;101748.19;6072268;23;20480;-36
2023/01/06 09:18:48;;;;;;;21.27;10.82;;;;;;;18.05;58.19;101752.56;6139560;23;20410;-38
2023/01/06 09:21:17;;;;;;;24.63;11.85;;;;;;;18.06;58.47;101757.81;6147060;23;20064;-36
2023/01/06 09:23:44;;;;;;;24.45;13.50;;;;;;;18.06;58.08;101757.81;6141224;23;20113;-37
2023/01/06 09:26:11;;;;;;;20.38;11.75;;;;;;;18.08;58.59;101758.50;6143464;23;20025;-36
2023/01/06 09:28:38;;;;;;;28.35;15.63;;;;;;;18.08;58.22;101757.66;6146994;23;20057;-36
2023/01/06 09:31:04;;;;;;;38.17;20.30;;;;;;;18.09;58.06;101760.22;6146712;23;20136;-36
2023/01/06 09:33:31;;;;;;;34.35;18.38;;;;;;;18.10;58.05;101769.97;6147910;23;20453;-37
2023/01/06 09:35:57;;;;;;;34.85;18.13;;;;;;;18.11;57.77;101779.72;6086806;23;20030;-37
2023/01/06 09:38:25;;;;;;;33.88;18.75;;;;;;;18.13;57.96;101782.25;6123150;23;20064;-36
2023/01/06 09:41:13;;;;;;;32.33;16.85;;;;;;;18.12;57.61;101781.41;6145197;23;20045;-36
2023/01/06 09:44:11;;;;;;;35.13;17.80;;;;;;;18.14;57.82;101792.88;6148172;23;20072;-36
2023/01/06 09:46:42;;;;;;;39.05;19.20;;;;;;;18.18;57.60;101802.38;6148429;23;20124;-36
2023/01/06 09:49:32;;;;;;;32.80;17.65;;;;;;;18.17;57.75;101805.16;6146169;23;20025;-36
2023/01/06 09:52:03;;;;;;;36.67;19.17;;;;;;;18.21;57.78;101820.91;6142090;23;20025;-36
2023/01/06 09:54:51;;;;;;;33.63;18.63;;;;;;;18.22;57.44;101816.38;6144456;23;20029;-36
2023/01/06 09:57:44;;;;;;;47.13;24.60;;;;;;;18.24;57.74;101803.66;6072891;23;20325;-36
2023/01/06 10:00:48;;;;;;;37.22;19.48;;;;;;;18.25;57.43;101799.97;6131820;23;20467;-36
2023/01/06 10:03:18;;;;;;;39.13;20.77;;;;;;;18.31;57.33;101812.88;6023278;23;20310;-35
2023/01/06 10:06:19;;;;;;;37.80;20.92;;;;;;;18.33;57.07;101818.13;6121919;23;20333;-36
2023/01/06 10:08:58;;;;;;;38.42;20.17;;;;;;;18.35;57.06;101818.84;6143749;23;20124;-35
2023/01/06 10:11:31;;;;;;;38.38;20.05;;;;;;;18.38;56.87;101827.50;6146566;23;20064;-36
2023/01/06 10:14:05;;;;;;;33.45;19.88;;;;;;;18.40;57.21;101835.41;6147487;23;20025;-36
2023/01/06 10:16:46;;;;;;;33.00;18.35;;;;;;;18.41;57.28;101829.91;6072518;23;20096;-36
2023/01/06 10:19:35;;;;;;;38.97;20.67;;;;;;;18.41;57.10;101826.34;6143632;23;20056;-36
2023/01/06 10:22:46;;;;;;;35.20;18.88;;;;;;;18.43;56.58;101822.56;6144354;23;20032;-36
2023/01/06 10:25:31;;;;;;;32.83;18.50;;;;;;;18.46;57.13;101833.06;6097675;23;20416;-35
2023/01/06 10:28:18;;;;;;;33.53;19.05;;;;;;;18.46;56.58;101829.53;6146313;23;20021;-36
2023/01/06 10:30:49;;;;;;;32.85;17.75;;;;;;;18.49;56.85;101830.09;6145619;23;20790;-35
2023/01/06 10:33:24;;;;;;;35.38;19.48;;;;;;;18.49;56.46;101829.22;6145361;23;20022;-37
2023/01/06 10:35:54;;;;;;;31.55;17.55;;;;;;;18.53;56.45;101827.13;6082970;23;20092;-39
2023/01/06 10:38:36;;;;;;;34.33;18.50;;;;;;;18.51;56.23;101824.59;6127014;23;20021;-39
2023/01/06 10:41:36;;;;;;;33.08;17.73;;;;;;;18.52;56.73;101822.75;6145505;23;20310;-38
2023/01/06 10:44:04;;;;;;;31.38;16.83;;;;;;;18.55;56.30;101825.19;6146676;23;20025;-37
2023/01/06 10:46:35;;;;;;;32.55;16.58;;;;;;;18.55;56.09;101823.34;6145220;23;20100;-37
2023/01/06 10:49:04;;;;;;;31.42;16.90;;;;;;;18.56;56.44;101822.34;6144180;23;20036;-36
2023/01/06 10:51:44;;;;;;;35.20;16.95;;;;;;;18.55;56.28;101811.75;6144395;23;20040;-38
2023/01/06 10:54:16;;;;;;;30.55;16.70;;;;;;;18.57;56.31;101812.47;6146046;23;20083;-37
2023/01/06 10:56:50;;;;;;;28.67;15.82;;;;;;;18.57;56.31;101821.38;6084440;23;20027;-36
2023/01/06 10:59:16;;;;;;;29.25;16.67;;;;;;;18.58;56.73;101828.47;6124583;23;20029;-38
2023/01/06 11:01:57;;;;;;;28.17;15.13;;;;;;;18.57;56.22;101832.09;6141766;23;20112;-37
2023/01/06 11:04:26;;;;;;;28.90;15.65;;;;;;;18.58;56.32;101825.78;6146615;23;20025;-36
2023/01/06 11:06:57;;;;;;;28.33;15.32;;;;;;;18.58;55.95;101839.19;6144439;23;20298;-36
2023/01/06 11:09:24;;;;;;;26.30;14.95;;;;;;;18.59;56.36;101835.53;6140978;23;20022;-36
2023/01/06 11:11:53;;;;;;;30.42;14.35;;;;;;;18.58;56.57;101831.13;6143949;23;20100;-36
2023/01/06 11:14:23;;;;;;;26.38;12.25;;;;;;;18.56;56.89;101838.47;6145636;23;20025;-38
2023/01/06 11:17:15;;;;;;;30.85;13.23;;;;;;;18.54;57.17;101839.59;6145680;23;20436;-36
2023/01/06 11:19:44;;;;;;;26.58;13.57;;;;;;;18.54;56.43;101835.06;6142891;23;20063;-37
2023/01/06 11:22:37;;;;;;;24.63;13.00;;;;;;;18.55;57.20;101843.97;6141845;23;20033;-36
2023/01/06 11:25:18;;;;;;;22.15;12.40;;;;;;;18.57;57.19;101842.84;6144655;23;20025;-36
2023/01/06 11:27:46;;;;;;;27.58;13.15;;;;;;;18.62;57.60;101842.47;6144080;23;20052;-36
2023/01/06 11:30:29;;;;;;;30.98;13.23;;;;;;;18.64;58.93;101835.97;6143918;23;20069;-37
2023/01/06 11:32:56;;;;;;;33.45;13.20;;;;;;;18.68;59.30;101831.19;6143717;23;20198;-36
2023/01/06 11:35:29;;;;;;;95.45;46.13;;;;;;;18.70;59.85;101837.31;6142863;23;20032;-38
2023/01/06 11:37:58;;;;;;;90.47;45.00;;;;;;;18.73;61.06;101831.66;6066101;23;20488;-37
2023/01/06 11:40:28;;;;;;;84.28;37.22;;;;;;;18.76;60.51;101825.16;6141211;23;20037;-36